Time;durP1;ratioP1;P1;durP2;ratioP2;P2;SDS_P1;SDS_P2;PMS_P1;PMS_P2;Temp;Humidity;BMP_temperature;BMP_pressure;BME280_temperature;BME280_humidity;BME280_pressure;Samples;Min_cycle;Max_cycle;Signal;HPM_P1;HPM_P2
2022/10/28 00:02:05;;;;;;;;;;;;;;;11.77;100.00;101211.19;4992944;28;20299;-79
2022/10/28 00:04:31;;;;;;;;;;;;;;;11.78;100.00;101216.31;4995134;28;21961;-79
2022/10/28 00:06:56;;;;;;;;;;;;;;;11.80;100.00;101211.13;5010576;28;19932;-79
2022/10/28 00:09:21;;;;;;;;;;;;;;;11.82;100.00;101203.16;4993952;28;19917;-79
2022/10/28 00:11:47;;;;;;;;;;;;;;;11.84;100.00;101203.53;4993354;28;20000;-80
2022/10/28 00:14:13;;;;;;;;;;;;;;;11.86;100.00;101206.66;5009012;28;19996;-78
2022/10/28 00:16:39;;;;;;;;;;;;;;;11.94;100.00;101205.38;4986924;28;19965;-77
2022/10/28 00:19:05;;;;;;;;;;;;;;;11.96;100.00;101208.53;4980179;28;19968;-78
2022/10/28 00:21:31;;;;;;;;;;;;;;;11.99;100.00;101207.69;5002381;28;20375;-79
2022/10/28 00:23:57;;;;;;;;;;;;;;;12.05;100.00;101206.00;4994582;28;20012;-79
2022/10/28 00:26:23;;;;;;;;;;;;;;;12.09;100.00;101203.19;4993641;28;19946;-80
2022/10/28 00:28:53;;;;;;;;;;;;;;;12.11;100.00;101207.13;4993361;28;19917;-78
2022/10/28 00:31:20;;;;;;;;;;;;;;;12.15;100.00;101209.84;4992196;28;20386;-79
2022/10/28 00:33:45;;;;;;;;;;;;;;;12.17;100.00;101204.66;4992846;28;20303;-79
2022/10/28 00:36:14;;;;;;;;;;;;;;;12.19;100.00;101207.00;5006290;28;19917;-78
2022/10/28 00:38:41;;;;;;;;;;;;;;;12.20;100.00;101205.81;4972946;28;19925;-79
2022/10/28 00:41:06;;;;;;;;;;;;;;;12.22;100.00;101211.72;4992715;28;19918;-79
2022/10/28 00:43:32;;;;;;;;;;;;;;;12.24;100.00;101206.53;4993183;28;19971;-79
2022/10/28 00:45:58;;;;;;;;;;;;;;;12.24;100.00;101206.53;4993418;28;19944;-79
2022/10/28 00:48:23;;;;;;;;;;;;;;;12.23;100.00;101208.53;4992102;28;19918;-79
2022/10/28 00:50:50;;;;;;;;;;;;;;;12.27;100.00;101200.13;4993390;28;20064;-79
2022/10/28 00:53:18;;;;;;;;;;;;;;;12.27;100.00;101206.50;4993449;28;20393;-79
2022/10/28 00:55:43;;;;;;;;;;;;;;;12.33;100.00;101198.47;4993304;28;19918;-79
2022/10/28 00:58:09;;;;;;;;;;;;;;;12.31;100.00;101195.31;4973042;28;20295;-79
2022/10/28 01:00:34;;;;;;;;;;;;;;;12.30;100.00;101202.84;4993999;28;20024;-79
2022/10/28 01:02:59;;;;;;;;;;;;;;;12.33;100.00;101201.25;4993721;28;20025;-78
2022/10/28 01:05:26;;;;;;;;;;;;;;;12.34;100.00;101200.03;4998366;28;20004;-78
2022/10/28 01:07:52;;;;;;;;;;;;;;;12.39;100.00;101196.78;5013382;28;19956;-78
2022/10/28 01:10:17;;;;;;;;;;;;;;;12.41;100.00;101205.50;4982695;28;19956;-79
2022/10/28 01:13:01;;;;;;;;;;;;;;;12.42;100.00;101196.72;4972783;28;19918;-79
2022/10/28 01:15:32;;;;;;;;;;;;;;;12.41;100.00;101194.38;5005430;28;19936;-79
2022/10/28 01:18:01;;;;;;;;;;;;;;;12.41;100.00;101197.16;4991732;28;19990;-78
2022/10/28 01:20:43;;;;;;;;;;;;;;;12.45;100.00;101195.88;4990838;28;19918;-80
2022/10/28 01:23:21;;;;;;;;;;;;;;;12.47;100.00;101187.09;4992099;28;19922;-79
2022/10/28 01:25:52;;;;;;;;;;;;;;;12.46;100.00;101191.09;4991402;28;19925;-79
2022/10/28 01:28:21;;;;;;;;;;;;;;;12.47;100.00;101199.03;4993588;28;19917;-79
2022/10/28 01:31:05;;;;;;;;;;;;;;;12.47;100.00;101198.22;4992802;28;20406;-79
2022/10/28 01:33:51;;;;;;;;;;;;;;;12.46;100.00;101199.44;4994442;28;19944;-79
2022/10/28 01:36:39;;;;;;;;;;;;;;;12.46;100.00;101196.66;5000521;28;19918;-79
2022/10/28 01:39:14;;;;;;;;;;;;;;;12.47;100.00;101198.22;4984823;28;19930;-79
2022/10/28 01:41:44;;;;;;;;;;;;;;;12.46;100.00;101202.22;4994114;28;19967;-78
2022/10/28 01:44:18;;;;;;;;;;;;;;;12.45;100.00;101200.66;4992003;28;19918;-79
2022/10/28 01:47:03;;;;;;;;;;;;;;;12.43;100.00;101197.50;4985031;28;19940;-79
2022/10/28 01:49:38;;;;;;;;;;;;;;;12.47;100.00;101192.66;4976652;28;20092;-79
2022/10/28 01:52:03;;;;;;;;;;;;;;;12.47;100.00;101192.66;4991459;28;19921;-79
2022/10/28 01:54:29;;;;;;;;;;;;;;;12.46;100.00;101191.88;4991701;28;19925;-79
2022/10/28 01:56:55;;;;;;;;;;;;;;;12.47;100.00;101192.66;4991720;28;19929;-79
2022/10/28 01:59:23;;;;;;;;;;;;;;;12.39;100.00;101188.41;4993740;28;19918;-79
2022/10/28 02:01:49;;;;;;;;;;;;;;;12.34;100.00;101186.09;5001172;28;20402;-79
2022/10/28 02:04:14;;;;;;;;;;;;;;;12.34;100.00;101180.53;5007455;28;19964;-80
2022/10/28 02:06:40;;;;;;;;;;;;;;;12.32;100.00;101180.97;4990883;28;20379;-79
2022/10/28 02:09:17;;;;;;;;;;;;;;;12.33;100.00;101185.34;4991327;28;19972;-79
2022/10/28 02:11:53;;;;;;;;;;;;;;;12.29;100.00;101181.84;4991741;28;20302;-79
2022/10/28 02:14:18;;;;;;;;;;;;;;;12.30;100.00;101171.47;4991917;28;20291;-80
2022/10/28 02:16:48;;;;;;;;;;;;;;;12.29;100.00;101169.91;5002507;28;19917;-80
2022/10/28 02:19:40;;;;;;;;;;;;;;;12.30;100.00;101182.59;4998219;28;19922;-79
2022/10/28 02:22:08;;;;;;;;;;;;;;;12.29;100.00;101181.03;4959690;28;19922;-79
2022/10/28 02:24:52;;;;;;;;;;;;;;;12.30;100.00;101172.25;4990500;28;19956;-79
2022/10/28 02:27:39;;;;;;;;;;;;;;;12.27;100.00;101175.09;4991647;28;20387;-79
2022/10/28 02:30:05;;;;;;;;;;;;;;;12.21;100.00;101176.78;4990037;28;19918;-79
2022/10/28 02:32:31;;;;;;;;;;;;;;;12.21;100.00;101174.81;4993423;28;19925;-79
2022/10/28 02:34:57;;;;;;;;;;;;;;;12.23;100.00;101172.38;5002942;28;19921;-79
2022/10/28 02:37:29;;;;;;;;;;;;;;;12.20;100.00;101172.44;5002435;28;19921;-79
2022/10/28 02:39:56;;;;;;;;;;;;;;;12.11;100.00;101182.09;4993813;28;20019;-79
2022/10/28 02:42:23;;;;;;;;;;;;;;;12.08;100.00;101171.03;4993640;28;20371;-79
2022/10/28 02:44:49;;;;;;;;;;;;;;;12.02;100.00;101172.69;4995298;28;20012;-79
2022/10/28 02:47:17;;;;;;;;;;;;;;;12.02;100.00;101169.91;4994529;28;20091;-79
2022/10/28 02:49:43;;;;;;;;;;;;;;;12.04;100.00;101173.06;4994512;28;19985;-79
2022/10/28 02:52:09;;;;;;;;;;;;;;;12.05;100.00;101166.31;4994351;28;20387;-79
2022/10/28 02:54:36;;;;;;;;;;;;;;;11.98;100.00;101164.41;4995290;28;20284;-79
2022/10/28 02:57:05;;;;;;;;;;;;;;;11.99;100.00;101163.19;4993812;28;19922;-79
2022/10/28 02:59:30;;;;;;;;;;;;;;;11.94;100.00;101166.44;4995321;28;19972;-79
2022/10/28 03:01:55;;;;;;;;;;;;;;;11.93;100.00;101164.84;4994634;28;19922;-79
2022/10/28 03:04:21;;;;;;;;;;;;;;;11.94;100.00;101166.44;4994205;28;19922;-79
2022/10/28 03:06:46;;;;;;;;;;;;;;;11.93;100.00;101164.09;4994949;28;20021;-79
2022/10/28 03:09:11;;;;;;;;;;;;;;;11.89;100.00;101163.38;4994918;28;19924;-79
2022/10/28 03:11:37;;;;;;;;;;;;;;;11.89;100.00;101169.69;4994857;28;19972;-79
2022/10/28 03:14:02;;;;;;;;;;;;;;;11.94;100.00;101166.44;4994888;28;19917;-79
2022/10/28 03:16:27;;;;;;;;;;;;;;;11.93;100.00;101164.84;4994152;28;20290;-79
2022/10/28 03:18:53;;;;;;;;;;;;;;;11.95;100.00;101173.59;4999588;28;19992;-79
2022/10/28 03:21:18;;;;;;;;;;;;;;;11.95;100.00;101173.59;4993497;28;19917;-79
2022/10/28 03:23:43;;;;;;;;;;;;;;;11.94;100.00;101171.22;4995887;28;20275;-79
2022/10/28 03:26:09;;;;;;;;;;;;;;;11.93;100.00;101170.41;4994452;28;19922;-79
2022/10/28 03:28:34;;;;;;;;;;;;;;;11.98;100.00;101172.75;4993836;28;19918;-79
2022/10/28 03:30:59;;;;;;;;;;;;;;;11.96;100.00;101177.94;4993764;28;19964;-79
2022/10/28 03:33:25;;;;;;;;;;;;;;;11.97;100.00;101171.16;4995443;28;19997;-79
2022/10/28 03:35:50;;;;;;;;;;;;;;;11.97;100.00;101168.38;4994503;28;19925;-78
2022/10/28 03:38:16;;;;;;;;;;;;;;;12.01;100.00;101171.91;4993920;28;20297;-79
2022/10/28 03:40:41;;;;;;;;;;;;;;;11.91;100.00;101167.28;4995781;28;20437;-79
2022/10/28 03:43:08;;;;;;;;;;;;;;;11.90;100.00;101168.50;4984765;28;19929;-79
2022/10/28 03:45:34;;;;;;;;;;;;;;;11.83;100.00;101168.59;5013010;28;19968;-79
2022/10/28 03:47:59;;;;;;;;;;;;;;;11.83;100.00;101168.59;5013630;28;20004;-79
2022/10/28 03:50:25;;;;;;;;;;;;;;;11.81;100.00;101184.13;5012644;28;20402;-79
2022/10/28 03:52:50;;;;;;;;;;;;;;;11.79;100.00;101176.19;4995723;28;19976;-79
2022/10/28 03:55:16;;;;;;;;;;;;;;;11.79;100.00;101170.63;5010735;28;19921;-79
2022/10/28 03:57:41;;;;;;;;;;;;;;;11.79;100.00;101170.63;5013294;28;19917;-79
2022/10/28 04:00:07;;;;;;;;;;;;;;;11.75;100.00;101178.22;5016525;28;19921;-79
2022/10/28 04:02:38;;;;;;;;;;;;;;;11.75;100.00;101180.22;5009301;28;19930;-79
2022/10/28 04:05:03;;;;;;;;;;;;;;;11.67;100.00;101179.50;5011510;28;20317;-79
2022/10/28 04:07:29;;;;;;;;;;;;;;;11.63;100.00;101175.97;5012573;28;19924;-79
2022/10/28 04:09:54;;;;;;;;;;;;;;;11.59;100.00;101176.03;5012233;28;19921;-79
2022/10/28 04:12:19;;;;;;;;;;;;;;;11.58;100.00;101179.22;5011863;28;19921;-79
2022/10/28 04:14:45;;;;;;;;;;;;;;;11.58;100.00;101174.44;4995040;28;19925;-79
2022/10/28 04:17:10;;;;;;;;;;;;;;;11.55;100.00;101177.28;5010701;28;19925;-79
2022/10/28 04:19:35;;;;;;;;;;;;;;;11.58;100.00;101179.22;5019287;28;19918;-79
2022/10/28 04:22:01;;;;;;;;;;;;;;;11.55;100.00;101177.28;5010714;28;20012;-79
2022/10/28 04:24:26;;;;;;;;;;;;;;;11.52;100.00;101175.34;5012667;28;19921;-79
2022/10/28 04:26:52;;;;;;;;;;;;;;;11.45;100.00;101169.84;4989954;28;19917;-79
2022/10/28 04:29:18;;;;;;;;;;;;;;;11.45;100.00;101164.28;5003120;28;19921;-78
2022/10/28 04:31:43;;;;;;;;;;;;;;;11.44;100.00;101171.06;5010340;28;19925;-78
2022/10/28 04:34:09;;;;;;;;;;;;;;;11.45;100.00;101161.50;5009156;28;20453;-78
2022/10/28 04:36:34;;;;;;;;;;;;;;;11.43;100.00;101166.72;5010407;28;19996;-80
2022/10/28 04:38:59;;;;;;;;;;;;;;;11.39;100.00;101163.97;5011737;28;19917;-80
2022/10/28 04:41:25;;;;;;;;;;;;;;;11.43;100.00;101169.50;5007173;28;19971;-79
2022/10/28 04:43:50;;;;;;;;;;;;;;;11.43;100.00;101164.72;5008236;28;19964;-80
2022/10/28 04:46:15;;;;;;;;;;;;;;;11.44;100.00;101165.50;5008259;28;20353;-79
2022/10/28 04:48:41;;;;;;;;;;;;;;;11.37;100.00;101165.56;4993695;28;19920;-80
2022/10/28 04:51:06;;;;;;;;;;;;;;;11.34;100.00;101161.66;4977253;28;19928;-79
2022/10/28 04:53:31;;;;;;;;;;;;;;;11.36;100.00;101166.81;4991081;28;20008;-80
2022/10/28 04:55:57;;;;;;;;;;;;;;;11.38;100.00;101162.41;5005969;28;19928;-78
2022/10/28 04:58:23;;;;;;;;;;;;;;;11.38;100.00;101161.59;5008612;28;19925;-81
2022/10/28 05:00:48;;;;;;;;;;;;;;;11.44;100.00;101171.06;5007849;28;19918;-79
2022/10/28 05:03:14;;;;;;;;;;;;;;;11.45;100.00;101167.84;5009111;28;19922;-79
2022/10/28 05:05:39;;;;;;;;;;;;;;;11.51;100.00;101162.63;4976953;28;19917;-79
2022/10/28 05:08:05;;;;;;;;;;;;;;;11.46;100.00;101155.53;5009284;28;20018;-79
2022/10/28 05:10:30;;;;;;;;;;;;;;;11.37;100.00;101158.03;5009697;28;19921;-79
2022/10/28 05:12:55;;;;;;;;;;;;;;;11.34;100.00;101155.31;5011106;28;19924;-78
2022/10/28 05:15:21;;;;;;;;;;;;;;;11.31;100.00;101162.50;5010475;28;19918;-80
2022/10/28 05:17:46;;;;;;;;;;;;;;;11.30;100.00;101165.66;4992960;28;19927;-80
2022/10/28 05:20:12;;;;;;;;;;;;;;;11.28;100.00;101160.53;4980974;28;19921;-80
2022/10/28 05:22:37;;;;;;;;;;;;;;;11.24;100.00;101157.78;4993791;28;20035;-77
2022/10/28 05:25:03;;;;;;;;;;;;;;;11.22;100.00;101162.97;5003958;28;19925;-79
2022/10/28 05:27:28;;;;;;;;;;;;;;;11.22;100.00;101160.19;5008315;28;19944;-79
2022/10/28 05:29:54;;;;;;;;;;;;;;;11.20;100.00;101164.59;5011055;28;19932;-79
2022/10/28 05:32:19;;;;;;;;;;;;;;;11.20;100.00;101168.16;4994371;28;20000;-83
2022/10/28 05:34:44;;;;;;;;;;;;;;;11.22;100.00;101154.66;5008358;28;19982;-82
2022/10/28 05:37:10;;;;;;;;;;;;;;;11.24;100.00;101163.34;4995790;28;19987;-83
2022/10/28 05:39:35;;;;;;;;;;;;;;;11.28;100.00;101159.75;5009874;28;19975;-83
2022/10/28 05:42:00;;;;;;;;;;;;;;;11.31;100.00;101161.69;4995064;28;20438;-83
2022/10/28 05:44:26;;;;;;;;;;;;;;;11.28;100.00;101165.31;5022127;28;19917;-83
2022/10/28 05:46:52;;;;;;;;;;;;;;;11.32;100.00;101157.72;5011764;28;19921;-82
2022/10/28 05:49:19;;;;;;;;;;;;;;;11.29;100.00;101162.09;5011469;28;19919;-82
2022/10/28 05:51:47;;;;;;;;;;;;;;;11.29;100.00;101150.19;5010631;28;19921;-82
2022/10/28 05:54:12;;;;;;;;;;;;;;;11.28;100.00;101162.53;5010060;28;20004;-82
2022/10/28 05:56:38;;;;;;;;;;;;;;;11.22;100.00;101162.19;5011786;28;20008;-84
2022/10/28 05:59:03;;;;;;;;;;;;;;;11.16;100.00;101158.31;4977937;28;19949;-83
2022/10/28 06:01:29;;;;;;;;;;;;;;;11.19;100.00;101163.81;5011541;28;19913;-83
2022/10/28 06:03:54;;;;;;;;;;;;;;;11.18;100.00;101153.91;5011458;28;20357;-83
2022/10/28 06:06:20;;;;;;;;;;;;;;;11.19;100.00;101158.25;4994277;28;19917;-83
2022/10/28 06:08:45;;;;;;;;;;;;;;;11.19;100.00;101168.56;5011478;28;19971;-83
2022/10/28 06:11:10;;;;;;;;;;;;;;;11.19;100.00;101172.16;5011281;28;20417;-82
2022/10/28 06:13:36;;;;;;;;;;;;;;;11.22;100.00;101171.31;5011538;28;19940;-82
2022/10/28 06:16:01;;;;;;;;;;;;;;;11.26;100.00;101176.81;5011335;28;20356;-82
2022/10/28 06:18:27;;;;;;;;;;;;;;;11.14;100.00;101186.47;4977664;28;20305;-82
2022/10/28 06:20:53;;;;;;;;;;;;;;;11.08;100.00;101182.56;5011734;28;19917;-83
2022/10/28 06:23:18;;;;;;;;;;;;;;;11.13;100.00;101184.09;5011433;28;19913;-82
2022/10/28 06:25:44;;;;;;;;;;;;;;;11.06;100.00;101189.75;5011777;28;19996;-82
2022/10/28 06:28:09;;;;;;;;;;;;;;;11.02;100.00;101188.97;5009533;28;20051;-82
2022/10/28 06:30:35;;;;;;;;;;;;;;;10.98;100.00;101200.13;4994880;28;20268;-82
2022/10/28 06:33:00;;;;;;;;;;;;;;;11.03;100.00;101187.78;5011704;28;20297;-82
2022/10/28 06:35:26;;;;;;;;;;;;;;;11.03;100.00;101188.59;5011599;28;20259;-82
2022/10/28 06:37:55;;;;;;;;;;;;;;;11.03;100.00;101202.47;4993916;28;20335;-81
2022/10/28 06:40:20;;;;;;;;;;;;;;;11.04;100.00;101203.25;5012083;28;20394;-82
2022/10/28 06:42:46;;;;;;;;;;;;;;;11.02;100.00;101205.66;4994497;28;19988;-82
2022/10/28 06:45:11;;;;;;;;;;;;;;;11.08;100.00;101210.31;5010852;28;19921;-82
2022/10/28 06:47:36;;;;;;;;;;;;;;;11.08;100.00;101209.56;5011352;28;19926;-82
2022/10/28 06:50:02;;;;;;;;;;;;;;;11.08;100.00;101210.31;5011125;28;19982;-82
2022/10/28 06:52:27;;;;;;;;;;;;;;;11.01;100.00;101210.41;5011259;28;19956;-82
2022/10/28 06:54:53;;;;;;;;;;;;;;;11.09;100.00;101217.47;5011320;28;19917;-81
2022/10/28 06:57:18;;;;;;;;;;;;;;;11.13;100.00;101212.66;5011091;28;20104;-82
2022/10/28 06:59:43;;;;;;;;;;;;;;;11.05;100.00;101210.38;5011323;28;19929;-83
2022/10/28 07:02:10;;;;;;;;;;;;;;;10.98;100.00;101205.69;5010939;28;19971;-82
2022/10/28 07:04:35;;;;;;;;;;;;;;;11.02;100.00;101205.66;5011263;28;20007;-82
2022/10/28 07:07:01;;;;;;;;;;;;;;;10.96;100.00;101213.63;5011034;28;19971;-82
2022/10/28 07:09:26;;;;;;;;;;;;;;;11.00;100.00;101213.63;5011295;28;19944;-82
2022/10/28 07:11:51;;;;;;;;;;;;;;;11.03;100.00;101208.03;5011465;28;20015;-82
2022/10/28 07:14:17;;;;;;;;;;;;;;;11.02;100.00;101200.09;5010785;28;19924;-82
2022/10/28 07:16:43;;;;;;;;;;;;;;;11.04;100.00;101215.13;4994058;28;19917;-83
2022/10/28 07:19:08;;;;;;;;;;;;;;;10.98;100.00;101211.22;5012119;28;20016;-82
2022/10/28 07:21:34;;;;;;;;;;;;;;;10.94;100.00;101210.47;5014972;28;19965;-82
2022/10/28 07:23:59;;;;;;;;;;;;;;;10.96;100.00;101212.84;5014425;28;19960;-82
2022/10/28 07:26:25;;;;;;;;;;;;;;;10.93;100.00;101214.44;5014862;28;20379;-82
2022/10/28 07:28:50;;;;;;;;;;;;;;;10.95;100.00;101212.06;5013913;28;19944;-82
2022/10/28 07:31:15;;;;;;;;;;;;;;;11.01;100.00;101220.72;5014368;28;19917;-82
2022/10/28 07:33:41;;;;;;;;;;;;;;;11.03;100.00;101218.34;5014277;28;19975;-82
2022/10/28 07:36:07;;;;;;;;;;;;;;;11.00;100.00;101217.16;5014169;28;19921;-82
2022/10/28 07:38:32;;;;;;;;;;;;;;;11.00;100.00;101225.47;5014442;28;20208;-82
2022/10/28 07:40:58;;;;;;;;;;;;;;;10.95;100.00;101228.72;5014602;28;19925;-82
2022/10/28 07:43:23;;;;;;;;;;;;;;;10.96;100.00;101219.16;5013765;28;19913;-82
2022/10/28 07:45:54;;;;;;;;;;;;;;;10.96;100.00;101226.75;5014361;28;19924;-82
2022/10/28 07:48:21;;;;;;;;;;;;;;;10.95;100.00;101228.72;5013938;28;19921;-82
2022/10/28 07:50:46;;;;;;;;;;;;;;;10.97;100.00;101225.50;5014626;28;19982;-82
2022/10/28 07:53:12;;;;;;;;;;;;;;;11.00;100.00;101228.25;5014269;28;19917;-82
2022/10/28 07:55:37;;;;;;;;;;;;;;;11.03;100.00;101216.34;5015483;28;19944;-82
2022/10/28 07:58:02;;;;;;;;;;;;;;;11.01;100.00;101227.06;4996967;28;19933;-82
2022/10/28 08:00:27;;;;;;;;;;;;;;;11.00;100.00;101228.25;5012913;28;19913;-82
2022/10/28 08:02:53;;;;;;;;;;;;;;;11.09;100.00;101225.78;5013862;28;19917;-82
2022/10/28 08:05:18;;;;;;;;;;;;;;;11.04;100.00;101220.69;5013947;28;19949;-82
2022/10/28 08:07:45;;;;;;;;;;;;;;;10.97;100.00;101228.28;5012790;28;20003;-82
2022/10/28 08:10:10;;;;;;;;;;;;;;;11.03;100.00;101230.22;5013355;28;19913;-82
2022/10/28 08:12:36;;;;;;;;;;;;;;;11.01;100.00;101229.84;5013833;28;19963;-82
2022/10/28 08:15:01;;;;;;;;;;;;;;;10.97;100.00;101223.53;4995777;28;19917;-82
2022/10/28 08:17:27;;;;;;;;;;;;;;;11.01;100.00;101221.50;5014071;28;19917;-82
2022/10/28 08:19:52;;;;;;;;;;;;;;;11.01;100.00;101224.28;5012199;28;19917;-81
2022/10/28 08:22:17;;;;;;;;;;;;;;;11.08;100.00;101237.34;5013372;28;20035;-82
2022/10/28 08:24:43;;;;;;;;;;;;;;;11.19;100.00;101226.91;4996574;28;19913;-82
2022/10/28 08:27:08;;;;;;;;;;;;;;;11.16;100.00;101234.03;5013315;28;20207;-82
2022/10/28 08:29:33;;;;;;;;;;;;;;;11.17;100.00;101230.06;5012988;28;19921;-82
2022/10/28 08:31:59;;;;;;;;;;;;;;;11.18;100.00;101237.22;5013394;28;19921;-82
2022/10/28 08:34:28;;;;;;;;;;;;;;;11.24;100.00;101232.00;5013156;28;19925;-82
2022/10/28 08:36:54;;;;;;;;;;;;;;;11.20;100.00;101234.78;5013452;28;20008;-82
2022/10/28 08:39:19;;;;;;;;;;;;;;;11.17;100.00;101224.53;4979225;28;20358;-82
2022/10/28 08:41:47;;;;;;;;;;;;;;;11.13;100.00;101234.88;4995771;28;20280;-82
2022/10/28 08:44:16;;;;;;;;;;;;;;;11.22;100.00;101235.19;5012764;28;20091;-82
2022/10/28 08:46:47;;;;;;;;;;;;;;;11.23;100.00;101228.44;5012976;28;19928;-82
2022/10/28 08:49:17;;;;;;;;;;;;;;;11.28;100.00;101234.75;5012883;28;19918;-82
2022/10/28 08:52:01;;;;;;;;;;;;;;;11.30;100.00;101243.44;4995542;28;19960;-82
2022/10/28 08:54:46;;;;;;;;;;;;;;;11.35;100.00;101241.00;5012816;28;19922;-82
2022/10/28 08:57:15;;;;;;;;;;;;;;;11.46;100.00;101246.44;5012985;28;19917;-82
2022/10/28 08:59:40;;;;;;;;;;;;;;;11.34;100.00;101238.63;5012444;28;19924;-82
2022/10/28 09:02:21;;;;;;;;;;;;;;;11.35;100.00;101237.44;5012803;28;19918;-82
2022/10/28 09:04:46;;;;;;;;;;;;;;;11.44;100.00;101248.84;5012703;28;19952;-82
2022/10/28 09:07:21;;;;;;;;;;;;;;;11.46;100.00;101250.00;4979072;28;20035;-81
2022/10/28 09:09:47;;;;;;;;;;;;;;;11.43;100.00;101241.72;4994772;28;19925;-82
2022/10/28 09:12:22;;;;;;;;;;;;;;;11.43;100.00;101252.84;4995127;28;19921;-82
2022/10/28 09:14:47;;;;;;;;;;;;;;;11.48;100.00;101241.28;4994873;28;19917;-82
2022/10/28 09:17:17;;;;;;;;;;;;;;;11.40;100.00;101248.09;5012555;28;20310;-82
2022/10/28 09:19:49;;;;;;;;;;;;;;;11.40;100.00;101248.91;5012118;28;20290;-82
2022/10/28 09:22:22;;;;;;;;;;;;;;;11.43;100.00;101239.72;5012478;28;20538;-83
2022/10/28 09:24:55;;;;;;;;;;;;;;;11.51;100.00;101246.00;5012313;28;20390;-83
2022/10/28 09:27:20;;;;;;;;;;;;;;;11.47;100.00;101248.03;4994812;28;19921;-82
2022/10/28 09:30:04;;;;;;;;;;;;;;;11.47;100.00;101242.47;5012060;28;20004;-82
2022/10/28 09:32:35;;;;;;;;;;;;;;;11.46;100.00;101238.09;5012121;28;19917;-83
2022/10/28 09:35:21;;;;;;;;;;;;;;;11.43;100.00;101236.16;5013543;28;20000;-82
2022/10/28 09:37:47;;;;;;;;;;;;;;;11.47;100.00;101228.56;4994919;28;19917;-81
2022/10/28 09:40:16;;;;;;;;;;;;;;;11.44;100.00;101234.97;4976163;28;19922;-82
2022/10/28 09:42:43;;;;;;;;;;;;;;;11.53;100.00;101238.03;4993159;28;20297;-82
2022/10/28 09:45:13;;;;;;;;;;;;;;;11.50;100.00;101238.84;4981646;28;19922;-82
2022/10/28 09:47:43;;;;;;;;;;;;;;;11.49;100.00;101231.72;4985117;28;19918;-82
2022/10/28 09:50:33;;;;;;;;;;;;;;;11.53;100.00;101235.25;5007652;28;20078;-84
2022/10/28 09:53:03;;;;;;;;;;;;;;;11.55;100.00;101232.84;5000520;28;19921;-81
2022/10/28 09:55:29;;;;;;;;;;;;;;;11.59;100.00;101236.38;4977190;28;20409;-81
2022/10/28 09:57:54;;;;;;;;;;;;;;;11.62;100.00;101222.44;4995082;28;19918;-81
2022/10/28 10:00:20;;;;;;;;;;;;;;;11.64;100.00;101230.38;4993347;28;19917;-83
2022/10/28 10:02:45;;;;;;;;;;;;;;;11.71;100.00;101235.84;4992846;28;20429;-84
2022/10/28 10:05:11;;;;;;;;;;;;;;;11.75;100.00;101236.59;4974742;28;19965;-83
2022/10/28 10:07:42;;;;;;;;;;;;;;;11.79;100.00;101240.13;4975154;28;20187;-82
2022/10/28 10:10:31;;;;;;;;;;;;;;;11.82;100.00;101236.50;4974762;28;20402;-82
2022/10/28 10:12:58;;;;;;;;;;;;;;;11.83;100.00;101232.53;4946806;28;19918;-81
2022/10/28 10:15:29;;;;;;;;;;;;;;;11.88;100.00;101234.84;4991969;28;19960;-82
2022/10/28 10:17:54;;;;;;;;;;;;;;;11.90;100.00;101226.88;4991855;28;19917;-82
2022/10/28 10:20:20;;;;;;;;;;;;;;;11.93;100.00;101230.84;4974398;28;19918;-83
2022/10/28 10:22:46;;;;;;;;;;;;;;;11.93;100.00;101222.50;4992140;28;20445;-83
2022/10/28 10:25:15;;;;;;;;;;;;;;;11.97;100.00;101231.56;4991390;28;19921;-83
2022/10/28 10:27:40;;;;;;;;;;;;;;;12.03;100.00;101230.69;4991844;28;20268;-83
2022/10/28 10:30:11;;;;;;;;;;;;;;;12.02;100.00;101229.09;4974244;28;19925;-82
2022/10/28 10:32:36;;;;;;;;;;;;;;;11.97;100.00;101231.56;4990310;28;20012;-82
2022/10/28 10:35:12;;;;;;;;;;;;;;;12.00;100.00;101220.41;4991601;28;20375;-83
2022/10/28 10:37:40;;;;;;;;;;;;;;;12.01;100.00;101215.63;4974664;28;19972;-82
2022/10/28 10:40:15;;;;;;;;;;;;;;;11.92;100.00;101218.91;4974286;28;19952;-83
2022/10/28 10:42:40;;;;;;;;;;;;;;;11.96;100.00;101222.44;4974394;28;20271;-83
2022/10/28 10:45:15;;;;;;;;;;;;;;;12.11;100.00;101215.47;4991077;28;19972;-83
2022/10/28 10:47:41;;;;;;;;;;;;;;;12.10;100.00;101233.34;4991892;28;19922;-83
2022/10/28 10:50:32;;;;;;;;;;;;;;;12.14;100.00;101225.75;5006657;28;19917;-80
2022/10/28 10:52:58;;;;;;;;;;;;;;;12.08;100.00;101219.09;5008982;28;19922;-80
2022/10/28 10:55:24;;;;;;;;;;;;;;;12.09;100.00;101217.84;4979837;28;19919;-79
2022/10/28 10:57:49;;;;;;;;;;;;;;;12.17;100.00;101217.78;4997512;28;19917;-79
2022/10/28 11:00:15;;;;;;;;;;;;;;;12.26;100.00;101220.81;5011812;28;19925;-79
2022/10/28 11:02:40;;;;;;;;;;;;;;;12.25;100.00;101213.69;4996026;28;19948;-79
2022/10/28 11:05:06;;;;;;;;;;;;;;;12.29;100.00;101214.44;4996627;28;19917;-79
2022/10/28 11:07:32;;;;;;;;;;;;;;;12.21;100.00;101219.31;5012893;28;20347;-80
2022/10/28 11:09:57;;;;;;;;;;;;;;;12.24;100.00;101217.66;5014354;28;19961;-79
2022/10/28 11:12:27;;;;;;;;;;;;;;;12.31;100.00;101217.56;5013606;28;20441;-80
2022/10/28 11:14:59;;;;;;;;;;;;;;;12.33;100.00;101220.72;5014369;28;19972;-79
2022/10/28 11:17:25;;;;;;;;;;;;;;;12.27;100.00;101206.50;5014485;28;19933;-79
2022/10/28 11:19:52;;;;;;;;;;;;;;;12.37;100.00;101210.31;5013292;28;19924;-79
2022/10/28 11:22:24;;;;;;;;;;;;;;;12.34;100.00;101211.16;5012926;28;19921;-79
2022/10/28 11:25:08;;;;;;;;;;;;;;;12.31;100.00;101212.00;4995617;28;19971;-80
2022/10/28 11:27:36;;;;;;;;;;;;;;;12.38;100.00;101207.09;5013206;28;19921;-80
2022/10/28 11:30:02;;;;;;;;;;;;;;;12.40;100.00;101198.34;5015347;28;19925;-78
2022/10/28 11:32:27;;;;;;;;;;;;;;;12.48;100.00;101200.59;5010248;28;20445;-79
2022/10/28 11:35:25;;;;;;;;;;;;;;;12.48;100.00;101200.59;5012707;28;19959;-80
2022/10/28 11:37:55;;;;;;;;;;;;;;;12.58;100.00;101184.91;4977642;28;20004;-79
2022/10/28 11:40:39;;;;;;;;;;;;;;;12.55;100.00;101172.66;5011361;28;19957;-80
2022/10/28 11:43:07;;;;;;;;;;;;;;;12.58;100.00;101171.78;5018114;28;19924;-79
2022/10/28 11:45:51;;;;;;;;;;;;;;;12.58;100.00;101176.56;5013372;28;19918;-79
2022/10/28 11:48:23;;;;;;;;;;;;;;;12.62;100.00;101164.16;5013942;28;19975;-79
2022/10/28 11:50:48;;;;;;;;;;;;;;;12.68;100.00;101158.13;5013913;28;20387;-79
2022/10/28 11:53:18;;;;;;;;;;;;;;;12.73;100.00;101160.44;5013776;28;20007;-79
2022/10/28 11:55:56;;;;;;;;;;;;;;;12.70;100.00;101153.69;5013755;28;20425;-79
2022/10/28 11:58:51;;;;;;;;;;;;;;;12.76;100.00;101148.44;5013861;28;19949;-80
2022/10/28 12:01:35;;;;;;;;;;;;;;;12.87;100.00;101137.88;5000176;28;20008;-80
2022/10/28 12:04:00;;;;;;;;;;;;;;;12.88;100.00;101140.25;5013586;28;20000;-80
2022/10/28 12:06:44;;;;;;;;;;;;;;;12.97;100.00;101139.69;5013247;28;20005;-80
2022/10/28 12:09:28;;;;;;;;;;;;;;;12.97;100.00;101142.47;5013580;28;19940;-80
2022/10/28 12:12:06;;;;;;;;;;;;;;;13.05;100.00;101144.72;5013870;28;20020;-80
2022/10/28 12:14:34;;;;;;;;;;;;;;;13.11;100.00;101135.88;5013281;28;19921;-79
2022/10/28 12:17:23;;;;;;;;;;;;;;;13.11;100.00;101138.66;5013552;28;19925;-79
2022/10/28 12:19:58;;;;;;;;;;;;;;;13.09;100.00;101123.13;5005335;28;19917;-80
2022/10/28 12:22:29;;;;;;;;;;;;;;;13.13;100.00;101136.22;5012093;28;20378;-80
2022/10/28 12:24:54;;;;;;;;;;;;;;;13.15;100.00;101126.22;4995900;28;19918;-80
2022/10/28 12:27:20;;;;;;;;;;;;;;;13.19;100.00;101132.50;5013231;28;20263;-80
2022/10/28 12:29:46;;;;;;;;;;;;;;;13.24;100.00;101134.03;5013321;28;19917;-79
2022/10/28 12:32:13;;;;;;;;;;;;;;;13.28;100.00;101141.09;4995849;28;19918;-79
2022/10/28 12:34:40;;;;;;;;;;;;;;;13.29;100.00;101133.53;5006004;28;19960;-80